createdAt,value
2018-07-24T00:00:36.701Z,19.00
2018-07-24T00:03:04.887Z,18.90
2018-07-24T00:05:32.973Z,18.90
2018-07-24T00:08:01.033Z,18.90
2018-07-24T00:10:29.109Z,18.90
2018-07-24T00:15:25.045Z,18.80
2018-07-24T00:17:53.113Z,18.70
2018-07-24T00:20:21.193Z,18.70
2018-07-24T00:22:49.265Z,18.60
2018-07-24T00:25:17.338Z,18.50
2018-07-24T00:27:45.373Z,18.50
2018-07-24T00:30:13.421Z,18.50
2018-07-24T00:32:41.477Z,18.40
2018-07-24T00:35:09.535Z,18.40
2018-07-24T00:37:37.594Z,18.40
2018-07-24T00:40:05.649Z,18.30
2018-07-24T00:42:33.725Z,18.30
2018-07-24T00:45:01.794Z,18.30
2018-07-24T00:49:57.725Z,18.30
2018-07-24T00:52:25.782Z,18.30
2018-07-24T00:54:53.846Z,18.30
2018-07-24T00:57:21.885Z,18.30
2018-07-24T00:59:49.967Z,18.30
2018-07-24T01:02:18.046Z,18.30
2018-07-24T01:04:46.106Z,18.30
2018-07-24T01:07:14.173Z,18.30
2018-07-24T01:09:42.225Z,18.20
2018-07-24T01:12:10.305Z,18.10
2018-07-24T01:17:06.312Z,18.00
2018-07-24T01:19:34.366Z,17.90
2018-07-24T01:26:58.169Z,17.90
2018-07-24T01:29:26.254Z,17.90
2018-07-24T01:31:54.310Z,17.80
2018-07-24T01:34:22.358Z,17.80
2018-07-24T01:36:50.432Z,17.70
2018-07-24T01:39:18.481Z,17.80
2018-07-24T01:41:46.560Z,17.70
2018-07-24T01:44:14.638Z,17.70
2018-07-24T01:46:42.691Z,17.70
2018-07-24T01:51:38.643Z,17.60
2018-07-24T01:54:06.722Z,17.60
2018-07-24T01:56:34.754Z,17.50
2018-07-24T01:59:02.813Z,17.50
2018-07-24T02:01:30.966Z,17.60
2018-07-24T02:03:59.014Z,17.50
2018-07-24T02:06:27.098Z,17.50
2018-07-24T02:08:55.147Z,17.50
2018-07-24T02:11:23.218Z,17.50
2018-07-24T02:13:51.297Z,17.40
2018-07-24T02:16:19.901Z,17.40
2018-07-24T02:18:47.982Z,17.30
2018-07-24T02:21:16.062Z,17.30
2018-07-24T02:23:44.131Z,17.30
2018-07-24T02:26:12.210Z,17.20
2018-07-24T02:28:40.302Z,17.20
2018-07-24T02:31:08.372Z,17.20
2018-07-24T02:33:36.438Z,17.20
2018-07-24T02:36:04.498Z,17.20
2018-07-24T02:38:32.550Z,17.20
2018-07-24T02:41:00.630Z,17.20
2018-07-24T02:43:28.702Z,17.10
2018-07-24T02:45:56.782Z,17.10
2018-07-24T02:48:24.871Z,17.10
2018-07-24T02:50:52.942Z,17.00
2018-07-24T02:53:20.986Z,17.00
2018-07-24T02:55:49.050Z,17.00
2018-07-24T02:58:17.115Z,17.00
2018-07-24T03:00:45.174Z,16.90
2018-07-24T03:03:13.251Z,16.90
2018-07-24T03:05:41.330Z,16.90
2018-07-24T03:08:09.390Z,16.90
2018-07-24T03:10:37.458Z,16.90
2018-07-24T03:13:05.522Z,16.80
2018-07-24T03:15:33.590Z,16.80
2018-07-24T03:18:01.634Z,16.70
2018-07-24T03:20:29.698Z,16.70
2018-07-24T03:22:57.776Z,16.60
2018-07-24T03:25:25.813Z,16.60
2018-07-24T03:27:53.891Z,16.60
2018-07-24T03:30:21.960Z,16.60
2018-07-24T03:32:50.027Z,16.60
2018-07-24T03:37:45.902Z,16.60
2018-07-24T03:40:13.960Z,16.60
2018-07-24T03:42:42.034Z,16.60
2018-07-24T03:45:10.114Z,16.60
2018-07-24T03:50:05.999Z,16.60
2018-07-24T03:52:34.046Z,16.70
2018-07-24T03:57:29.934Z,16.70
2018-07-24T03:59:58.002Z,16.60
2018-07-24T04:02:26.085Z,16.60
2018-07-24T04:04:54.100Z,16.60
2018-07-24T04:07:22.162Z,16.50
2018-07-24T04:09:50.206Z,16.50
2018-07-24T04:12:18.262Z,16.50
2018-07-24T04:14:46.327Z,16.60
2018-07-24T04:17:14.375Z,16.70
2018-07-24T04:19:42.454Z,16.70
2018-07-24T04:22:10.522Z,16.80
2018-07-24T04:27:06.613Z,16.90
2018-07-24T04:29:34.663Z,17.00
2018-07-24T04:32:02.741Z,17.00
2018-07-24T04:34:30.783Z,17.10
2018-07-24T04:36:58.850Z,17.10
2018-07-24T04:39:26.890Z,17.10
2018-07-24T04:41:54.942Z,17.20
2018-07-24T04:44:23.010Z,17.20
2018-07-24T04:46:51.054Z,17.30
2018-07-24T04:49:19.128Z,17.40
2018-07-24T04:51:47.173Z,17.40
2018-07-24T04:54:15.223Z,17.50
2018-07-24T04:56:43.278Z,17.60
2018-07-24T04:59:11.341Z,17.70
2018-07-24T05:01:39.391Z,17.70
2018-07-24T05:04:07.646Z,17.70
2018-07-24T05:06:35.693Z,17.70
2018-07-24T05:09:05.650Z,17.80
2018-07-24T05:11:33.710Z,17.80
2018-07-24T05:14:01.775Z,17.90
2018-07-24T05:16:29.841Z,18.00
2018-07-24T05:18:57.879Z,18.00
2018-07-24T05:21:25.934Z,18.10
2018-07-24T05:23:53.991Z,18.10
2018-07-24T05:26:22.049Z,18.10
2018-07-24T05:28:50.106Z,18.10
2018-07-24T05:31:18.214Z,18.20
2018-07-24T05:33:46.254Z,18.20
2018-07-24T05:36:14.301Z,18.20
2018-07-24T05:38:42.415Z,18.30
2018-07-24T05:41:10.470Z,18.30
2018-07-24T05:46:06.355Z,18.50
2018-07-24T05:48:34.436Z,18.50
2018-07-24T05:51:02.475Z,18.60
2018-07-24T05:53:30.543Z,18.60
2018-07-24T05:55:58.593Z,18.60
2018-07-24T06:00:54.482Z,18.70
2018-07-24T06:03:22.549Z,18.80
2018-07-24T06:05:50.614Z,18.80
2018-07-24T06:10:46.694Z,19.00
2018-07-24T06:13:14.847Z,19.10
2018-07-24T06:15:42.813Z,19.20
2018-07-24T06:18:10.863Z,19.20
2018-07-24T06:20:38.926Z,19.30
2018-07-24T06:23:06.990Z,19.20
2018-07-24T06:25:35.072Z,19.20
2018-07-24T06:28:03.126Z,19.30
2018-07-24T06:35:26.866Z,19.50
2018-07-24T06:37:54.914Z,19.60
2018-07-24T06:40:22.958Z,19.60
2018-07-24T06:42:51.020Z,19.70
2018-07-24T06:45:19.077Z,19.80
2018-07-24T06:47:47.135Z,19.80
2018-07-24T06:50:15.186Z,19.90
2018-07-24T06:52:43.250Z,20.00
2018-07-24T06:55:11.313Z,20.10
2018-07-24T06:57:39.978Z,20.10
2018-07-24T07:00:08.036Z,20.20
2018-07-24T07:02:36.106Z,20.30
2018-07-24T07:05:04.197Z,20.40
2018-07-24T07:07:32.207Z,20.50
2018-07-24T07:10:00.246Z,20.60
2018-07-24T07:12:28.304Z,20.70
2018-07-24T07:14:56.342Z,20.80
2018-07-24T07:17:24.406Z,20.90
2018-07-24T07:19:52.484Z,20.90
2018-07-24T07:22:20.538Z,21.00
2018-07-24T07:24:48.581Z,21.10
2018-07-24T07:27:16.635Z,21.20
2018-07-24T07:29:44.689Z,21.40
2018-07-24T07:32:12.925Z,21.40
2018-07-24T07:34:40.924Z,21.60
2018-07-24T07:37:08.978Z,21.60
2018-07-24T07:39:37.046Z,21.70
2018-07-24T07:42:04.430Z,21.80
2018-07-24T07:44:32.481Z,22.00
2018-07-24T07:47:00.549Z,22.00
2018-07-24T07:49:28.610Z,22.10
2018-07-24T07:51:56.646Z,22.10
2018-07-24T07:54:24.712Z,22.20
2018-07-24T07:56:52.782Z,22.40
2018-07-24T07:59:20.998Z,22.40
2018-07-24T08:04:16.248Z,22.50
2018-07-24T08:06:44.269Z,22.50
2018-07-24T08:09:12.517Z,22.70
2018-07-24T08:11:40.830Z,22.80
2018-07-24T08:14:08.261Z,22.90
2018-07-24T08:16:35.621Z,22.90
2018-07-24T08:19:03.698Z,23.10
2018-07-24T08:21:31.082Z,23.30
2018-07-24T08:23:59.158Z,23.30
2018-07-24T08:26:27.205Z,23.30
2018-07-24T08:28:55.346Z,23.30
2018-07-24T08:31:23.397Z,23.40
2018-07-24T08:33:51.497Z,23.60
2018-07-24T08:36:19.534Z,23.70
2018-07-24T08:38:47.606Z,23.80
2018-07-24T08:41:15.650Z,23.80
2018-07-24T08:43:43.726Z,23.80
2018-07-24T08:46:11.790Z,23.90
2018-07-24T08:48:39.848Z,24.00
2018-07-24T08:51:07.899Z,24.00
2018-07-24T08:53:36.112Z,24.00
2018-07-24T08:56:04.014Z,24.10
2018-07-24T08:58:32.054Z,24.20
2018-07-24T09:01:00.132Z,24.30
2018-07-24T09:03:28.238Z,24.50
2018-07-24T09:05:56.254Z,24.70
2018-07-24T09:10:52.125Z,25.00
2018-07-24T09:13:20.167Z,25.00
2018-07-24T09:15:48.246Z,25.10
2018-07-24T09:18:16.285Z,25.20
2018-07-24T09:20:43.681Z,25.30
2018-07-24T09:23:11.062Z,25.40
2018-07-24T09:25:38.443Z,25.50
2018-07-24T09:28:05.825Z,25.70
2018-07-24T09:30:33.248Z,25.70
2018-07-24T09:33:00.589Z,25.80
2018-07-24T09:35:27.982Z,25.80
2018-07-24T09:37:55.375Z,25.90
2018-07-24T09:40:22.775Z,26.00
2018-07-24T09:42:50.149Z,26.00
2018-07-24T09:45:17.537Z,26.20
2018-07-24T09:47:44.921Z,26.20
2018-07-24T09:50:12.318Z,26.20
2018-07-24T09:52:39.686Z,26.30
2018-07-24T09:55:07.094Z,26.40
2018-07-24T09:57:34.478Z,26.40
2018-07-24T10:00:01.877Z,26.60
2018-07-24T10:02:29.288Z,26.70
2018-07-24T10:04:56.697Z,26.70
2018-07-24T10:09:51.276Z,26.90
2018-07-24T10:12:18.685Z,27.00
2018-07-24T10:14:46.066Z,27.10
2018-07-24T10:17:14.119Z,27.10
2018-07-24T10:22:09.343Z,27.30
2018-07-24T10:24:37.371Z,27.30
2018-07-24T10:27:04.753Z,27.30
2018-07-24T10:29:32.800Z,27.40
2018-07-24T10:32:00.845Z,27.50
2018-07-24T10:34:28.907Z,27.50
2018-07-24T10:36:56.949Z,27.60
2018-07-24T10:39:24.333Z,27.70
2018-07-24T10:41:52.381Z,27.80
2018-07-24T10:44:20.431Z,27.90
2018-07-24T10:46:48.486Z,28.10
2018-07-24T10:49:16.557Z,28.10
2018-07-24T10:51:43.922Z,28.20
2018-07-24T10:54:11.974Z,28.30
2018-07-24T10:56:40.020Z,28.40
2018-07-24T10:59:08.071Z,28.70
2018-07-24T11:01:36.109Z,28.90
2018-07-24T11:04:04.166Z,29.10
2018-07-24T11:06:32.206Z,29.50
2018-07-24T11:09:00.255Z,29.80
2018-07-24T11:11:28.302Z,30.30
2018-07-24T11:13:56.349Z,30.60
2018-07-24T11:16:23.763Z,30.70
2018-07-24T11:18:51.798Z,30.90
2018-07-24T11:21:19.858Z,31.30
2018-07-24T11:23:47.887Z,31.50
2018-07-24T11:26:15.406Z,31.00
2018-07-24T11:28:43.466Z,31.20
2018-07-24T11:31:11.538Z,31.50
2018-07-24T11:33:39.578Z,31.70
2018-07-24T11:36:07.722Z,31.30
2018-07-24T11:38:35.072Z,31.50
2018-07-24T11:41:02.430Z,31.10
2018-07-24T11:43:30.440Z,31.20
2018-07-24T11:48:26.478Z,31.90
2018-07-24T11:50:53.898Z,32.50
2018-07-24T11:55:48.465Z,33.00
2018-07-24T11:58:15.843Z,33.20
2018-07-24T12:00:43.232Z,33.20
2018-07-24T12:03:10.629Z,33.40
2018-07-24T12:05:38.013Z,33.70
2018-07-24T12:08:05.393Z,33.80
2018-07-24T12:10:32.782Z,33.90
2018-07-24T12:13:00.186Z,34.10
2018-07-24T12:15:27.565Z,33.90
2018-07-24T12:17:54.962Z,33.80
2018-07-24T12:20:22.482Z,34.00
2018-07-24T12:22:49.883Z,34.00
2018-07-24T12:25:17.261Z,34.20
2018-07-24T12:30:11.825Z,34.10
2018-07-24T12:32:39.209Z,34.40
2018-07-24T12:35:06.669Z,34.60
2018-07-24T12:37:34.041Z,34.40
2018-07-24T12:40:01.439Z,34.60
2018-07-24T12:42:28.809Z,34.60
2018-07-24T12:44:56.246Z,34.40
2018-07-24T12:47:23.633Z,34.60
2018-07-24T12:49:51.022Z,34.50
2018-07-24T12:52:18.402Z,34.60
2018-07-24T12:57:13.020Z,34.30
2018-07-24T12:59:40.423Z,34.60
2018-07-24T13:04:35.016Z,35.00
2018-07-24T13:07:03.010Z,34.10
2018-07-24T13:09:31.071Z,34.30
2018-07-24T13:11:58.469Z,34.50
2018-07-24T13:14:25.885Z,34.70
2018-07-24T13:16:53.257Z,34.80
2018-07-24T13:19:20.658Z,34.90
2018-07-24T13:21:48.053Z,35.00
2018-07-24T13:24:15.445Z,35.30
2018-07-24T13:29:10.029Z,35.30
2018-07-24T13:34:05.234Z,35.40
2018-07-24T13:36:33.305Z,35.80
2018-07-24T13:39:01.346Z,35.30
2018-07-24T13:43:55.909Z,35.10
2018-07-24T13:48:51.794Z,35.30
2018-07-24T13:51:19.183Z,35.30
2018-07-24T13:53:46.577Z,35.50
2018-07-24T13:56:14.609Z,35.40
2018-07-24T13:58:42.674Z,35.50
2018-07-24T14:01:10.723Z,35.80
2018-07-24T14:03:38.142Z,35.70
2018-07-24T14:06:05.513Z,35.40
2018-07-24T14:08:32.916Z,35.50
2018-07-24T14:11:00.308Z,35.50
2018-07-24T14:13:27.697Z,35.20
2018-07-24T14:15:55.082Z,35.20
2018-07-24T14:18:22.465Z,34.90
2018-07-24T14:20:49.886Z,34.50
2018-07-24T14:25:44.462Z,34.40
2018-07-24T14:28:11.833Z,34.40
2018-07-24T14:30:39.983Z,34.80
2018-07-24T14:33:08.239Z,35.10
2018-07-24T14:35:35.642Z,34.80
2018-07-24T14:38:03.021Z,34.60
2018-07-24T14:40:30.460Z,34.70
2018-07-24T14:42:58.206Z,34.60
2018-07-24T14:45:26.278Z,34.70
2018-07-24T14:47:54.299Z,35.10
2018-07-24T14:50:22.334Z,35.20
2018-07-24T14:52:49.792Z,35.30
2018-07-24T14:55:17.858Z,35.20
2018-07-24T14:57:45.258Z,34.90
2018-07-24T15:00:12.657Z,34.60
2018-07-24T15:02:40.189Z,34.70
2018-07-24T15:07:35.078Z,34.70
2018-07-24T15:10:02.509Z,35.10
2018-07-24T15:14:57.720Z,35.50
2018-07-24T15:17:25.770Z,35.50
2018-07-24T15:19:53.815Z,35.20
2018-07-24T15:24:49.109Z,35.20
2018-07-24T15:27:16.485Z,35.00
2018-07-24T15:29:44.146Z,34.10
2018-07-24T15:32:11.495Z,34.40
2018-07-24T15:34:39.083Z,34.60
2018-07-24T15:39:34.103Z,34.80
2018-07-24T15:42:01.489Z,34.70
2018-07-24T15:44:28.888Z,34.70
2018-07-24T15:46:56.951Z,34.70
2018-07-24T15:49:24.325Z,34.80
2018-07-24T15:51:52.374Z,35.20
2018-07-24T15:54:20.793Z,35.30
2018-07-24T15:56:48.210Z,35.20
2018-07-24T16:01:42.782Z,35.20
2018-07-24T16:06:38.649Z,35.40
2018-07-24T16:09:07.213Z,35.30
2018-07-24T16:11:34.601Z,35.30
2018-07-24T16:14:02.671Z,35.30
2018-07-24T16:16:30.742Z,35.20
2018-07-24T16:18:58.781Z,35.20
2018-07-24T16:21:26.177Z,35.20
2018-07-24T16:23:53.568Z,35.20
2018-07-24T16:26:20.957Z,35.30
2018-07-24T16:28:48.346Z,35.40
2018-07-24T16:31:15.727Z,35.20
2018-07-24T16:33:43.113Z,35.20
2018-07-24T16:38:38.096Z,35.00
2018-07-24T16:43:32.656Z,35.10
2018-07-24T16:46:00.217Z,34.70
2018-07-24T16:50:54.773Z,34.30
2018-07-24T16:53:22.154Z,33.90
2018-07-24T16:55:49.553Z,33.80
2018-07-24T16:58:16.949Z,33.70
2018-07-24T17:00:44.337Z,33.50
2018-07-24T17:03:11.880Z,33.60
2018-07-24T17:05:39.165Z,33.70
2018-07-24T17:08:06.794Z,33.50
2018-07-24T17:10:34.189Z,33.50
2018-07-24T17:13:01.573Z,33.50
2018-07-24T17:15:28.961Z,33.40
2018-07-24T17:17:56.365Z,33.30
2018-07-24T17:20:23.749Z,33.50
2018-07-24T17:22:51.145Z,33.30
2018-07-24T17:25:18.550Z,33.00
2018-07-24T17:27:45.985Z,32.80
2018-07-24T17:30:13.346Z,32.60
2018-07-24T17:35:09.240Z,32.10
2018-07-24T17:37:37.290Z,31.80
2018-07-24T17:40:05.379Z,31.80
2018-07-24T17:45:01.234Z,31.70
2018-07-24T17:47:29.286Z,31.80
2018-07-24T17:49:57.350Z,31.70
2018-07-24T17:52:25.399Z,31.60
2018-07-24T17:54:52.796Z,31.60
2018-07-24T17:57:20.862Z,31.50
2018-07-24T17:59:48.932Z,31.20
2018-07-24T18:02:16.969Z,31.10
2018-07-24T18:04:45.003Z,30.90
2018-07-24T18:09:40.229Z,30.50
2018-07-24T18:12:08.994Z,30.40
2018-07-24T18:17:04.946Z,30.00
2018-07-24T18:19:32.998Z,29.90
2018-07-24T18:22:01.064Z,29.80
2018-07-24T18:24:29.114Z,29.70
2018-07-24T18:26:57.365Z,29.60
2018-07-24T18:29:25.548Z,29.50
2018-07-24T18:31:53.602Z,29.30
2018-07-24T18:34:21.645Z,29.20
2018-07-24T18:36:49.034Z,29.10
2018-07-24T18:39:16.431Z,29.00
2018-07-24T18:41:43.818Z,28.90
2018-07-24T18:44:11.858Z,28.80
2018-07-24T18:49:07.081Z,28.60
2018-07-24T18:51:34.476Z,28.40
2018-07-24T18:54:02.522Z,28.30
2018-07-24T18:56:30.570Z,28.10
2018-07-24T18:58:58.611Z,28.00
2018-07-24T19:01:26.666Z,27.90
2018-07-24T19:03:54.714Z,27.80
2018-07-24T19:06:22.762Z,27.70
2018-07-24T19:08:50.946Z,27.60
2018-07-24T19:11:19.081Z,27.50
2018-07-24T19:13:47.054Z,27.30
2018-07-24T19:16:15.106Z,27.20
2018-07-24T19:18:43.175Z,27.10
2018-07-24T19:21:11.254Z,27.10
2018-07-24T19:23:39.326Z,27.00
2018-07-24T19:31:03.168Z,26.80
2018-07-24T19:33:31.114Z,26.70
2018-07-24T19:35:59.366Z,26.70
2018-07-24T19:38:27.442Z,26.50
2018-07-24T19:40:55.515Z,26.50
2018-07-24T19:45:51.642Z,26.30
2018-07-24T19:48:19.710Z,26.20
2018-07-24T19:50:47.771Z,26.20
2018-07-24T19:53:15.814Z,26.10
2018-07-24T19:55:43.857Z,26.00
2018-07-24T19:58:12.345Z,26.00
2018-07-24T20:00:40.386Z,25.90
2018-07-24T20:03:08.437Z,25.90
2018-07-24T20:05:36.511Z,25.80
2018-07-24T20:08:04.606Z,25.80
2018-07-24T20:10:32.677Z,25.70
2018-07-24T20:13:00.085Z,25.70
2018-07-24T20:15:28.159Z,25.60
2018-07-24T20:17:55.573Z,25.60
2018-07-24T20:20:22.988Z,25.50
2018-07-24T20:22:50.492Z,25.50
2018-07-24T20:25:17.793Z,25.40
2018-07-24T20:27:45.218Z,25.40
2018-07-24T20:30:12.653Z,25.30
2018-07-24T20:32:40.044Z,25.30
2018-07-24T20:35:13.948Z,25.20
2018-07-24T20:37:42.068Z,25.20
2018-07-24T20:42:37.297Z,25.00
2018-07-24T20:45:05.810Z,24.90
2018-07-24T20:47:33.874Z,24.80
2018-07-24T20:50:01.919Z,24.70
2018-07-24T20:52:29.986Z,24.70
2018-07-24T20:54:58.021Z,24.60
2018-07-24T20:57:26.086Z,24.60
2018-07-24T20:59:54.142Z,24.50
2018-07-24T21:02:22.236Z,24.50
2018-07-24T21:04:50.270Z,24.40
2018-07-24T21:07:18.326Z,24.40
2018-07-24T21:09:45.729Z,24.30
2018-07-24T21:12:13.125Z,24.30
2018-07-24T21:14:40.520Z,24.20
2018-07-24T21:19:35.783Z,24.10
2018-07-24T21:22:03.867Z,24.10
2018-07-24T21:24:31.916Z,24.10
2018-07-24T21:26:59.957Z,24.10
2018-07-24T21:29:28.002Z,24.10
2018-07-24T21:31:56.066Z,24.00
2018-07-24T21:34:24.126Z,24.00
2018-07-24T21:36:51.535Z,23.90
2018-07-24T21:39:18.913Z,23.90
2018-07-24T21:41:46.949Z,23.80
2018-07-24T21:44:14.329Z,23.70
2018-07-24T21:46:41.720Z,23.70
2018-07-24T21:49:09.215Z,23.60
2018-07-24T21:51:37.194Z,23.60
2018-07-24T21:54:05.263Z,23.60
2018-07-24T21:56:32.649Z,23.60
2018-07-24T21:59:00.065Z,23.50
2018-07-24T22:01:27.441Z,23.50
2018-07-24T22:03:55.473Z,23.40
2018-07-24T22:06:22.870Z,23.30
2018-07-24T22:08:50.368Z,23.20
2018-07-24T22:11:17.664Z,23.20
2018-07-24T22:13:45.054Z,23.10
2018-07-24T22:18:39.619Z,23.00
2018-07-24T22:21:07.278Z,22.90
2018-07-24T22:23:35.744Z,22.80
2018-07-24T22:28:30.441Z,22.60
2018-07-24T22:30:57.877Z,22.60
2018-07-24T22:33:25.272Z,22.60
2018-07-24T22:35:52.670Z,22.50
2018-07-24T22:38:20.078Z,22.50
2018-07-24T22:40:47.508Z,22.50
2018-07-24T22:43:14.906Z,22.40
2018-07-24T22:45:42.468Z,22.40
2018-07-24T22:48:09.882Z,22.30
2018-07-24T22:50:37.267Z,22.30
2018-07-24T22:53:04.793Z,22.30
2018-07-24T22:55:32.181Z,22.20
2018-07-24T22:57:59.717Z,22.20
2018-07-24T23:02:54.316Z,22.10
2018-07-24T23:05:21.701Z,22.10
2018-07-24T23:07:49.090Z,22.00
2018-07-24T23:10:16.476Z,21.90
2018-07-24T23:12:43.845Z,21.90
2018-07-24T23:15:11.225Z,21.80
2018-07-24T23:17:38.609Z,21.80
2018-07-24T23:20:05.997Z,21.70
2018-07-24T23:22:33.389Z,21.60
2018-07-24T23:25:00.801Z,21.50
2018-07-24T23:27:28.200Z,21.50
2018-07-24T23:32:22.766Z,21.30
2018-07-24T23:37:17.363Z,21.30
2018-07-24T23:42:13.302Z,21.30
2018-07-24T23:44:41.374Z,21.20
2018-07-24T23:47:09.467Z,21.10
2018-07-24T23:49:37.575Z,21.00
2018-07-24T23:52:05.658Z,21.00
2018-07-24T23:54:33.739Z,20.90
2018-07-24T23:57:01.777Z,20.80
2018-07-24T23:59:29.887Z,20.80
